createdAt,value
2018-07-28T00:00:19.095Z,81
2018-07-28T00:01:21.141Z,81
2018-07-28T00:02:23.196Z,81
2018-07-28T00:03:25.233Z,81
2018-07-28T00:04:27.283Z,81
2018-07-28T00:05:29.724Z,81
2018-07-28T00:06:32.079Z,81
2018-07-28T00:07:34.414Z,81
2018-07-28T00:08:36.464Z,82
2018-07-28T00:09:38.509Z,82
2018-07-28T00:10:40.855Z,81
2018-07-28T00:11:43.180Z,82
2018-07-28T00:12:45.222Z,82
2018-07-28T00:13:47.267Z,82
2018-07-28T00:14:49.616Z,82
2018-07-28T00:15:51.648Z,82
2018-07-28T00:16:53.703Z,82
2018-07-28T00:17:55.749Z,82
2018-07-28T00:18:58.179Z,82
2018-07-28T00:20:00.234Z,82
2018-07-28T00:21:03.057Z,82
2018-07-28T00:22:05.108Z,82
2018-07-28T00:23:07.530Z,83
2018-07-28T00:24:09.873Z,83
2018-07-28T00:25:12.198Z,83
2018-07-28T00:26:14.237Z,83
2018-07-28T00:27:16.288Z,83
2018-07-28T00:28:18.326Z,83
2018-07-28T00:29:20.762Z,83
2018-07-28T00:30:22.813Z,83
2018-07-28T00:31:25.153Z,83
2018-07-28T00:32:27.492Z,83
2018-07-28T00:33:29.823Z,83
2018-07-28T00:34:31.869Z,83
2018-07-28T00:35:33.907Z,83
2018-07-28T00:36:35.962Z,83
2018-07-28T00:37:38.003Z,83
2018-07-28T00:38:40.321Z,83
2018-07-28T00:39:42.377Z,84
2018-07-28T00:40:44.798Z,83
2018-07-28T00:41:46.842Z,84
2018-07-28T00:42:48.886Z,84
2018-07-28T00:43:50.923Z,83
2018-07-28T00:44:53.274Z,84
2018-07-28T00:45:55.327Z,84
2018-07-28T00:46:57.669Z,84
2018-07-28T00:48:00.087Z,84
2018-07-28T00:49:02.142Z,84
2018-07-28T00:50:04.178Z,84
2018-07-28T00:51:06.225Z,85
2018-07-28T00:52:08.275Z,84
2018-07-28T00:53:10.311Z,84
2018-07-28T00:54:12.407Z,84
2018-07-28T00:55:14.693Z,84
2018-07-28T00:56:16.749Z,84
2018-07-28T00:57:18.788Z,84
2018-07-28T00:58:20.830Z,84
2018-07-28T00:59:23.154Z,84
2018-07-28T01:00:25.215Z,84
2018-07-28T01:01:27.253Z,85
2018-07-28T01:02:29.308Z,85
2018-07-28T01:03:31.356Z,85
2018-07-28T01:04:33.404Z,85
2018-07-28T01:05:35.443Z,85
2018-07-28T01:06:37.492Z,85
2018-07-28T01:07:39.538Z,85
2018-07-28T01:08:41.864Z,85
2018-07-28T01:09:43.919Z,85
2018-07-28T01:10:46.244Z,85
2018-07-28T01:11:48.852Z,85
2018-07-28T01:12:50.908Z,85
2018-07-28T01:13:52.950Z,85
2018-07-28T01:14:54.990Z,85
2018-07-28T01:15:57.320Z,86
2018-07-28T01:16:59.645Z,86
2018-07-28T01:18:01.706Z,85
2018-07-28T01:19:03.756Z,85
2018-07-28T01:20:06.200Z,86
2018-07-28T01:21:08.233Z,86
2018-07-28T01:22:10.287Z,86
2018-07-28T01:23:12.328Z,86
2018-07-28T01:24:14.655Z,86
2018-07-28T01:25:16.994Z,86
2018-07-28T01:26:19.412Z,86
2018-07-28T01:27:21.847Z,86
2018-07-28T01:28:23.887Z,86
2018-07-28T01:29:26.228Z,86
2018-07-28T01:30:28.261Z,86
2018-07-28T01:31:30.316Z,86
2018-07-28T01:32:32.361Z,86
2018-07-28T01:33:34.397Z,86
2018-07-28T01:34:36.446Z,86
2018-07-28T01:35:39.183Z,86
2018-07-28T01:36:41.235Z,86
2018-07-28T01:37:43.670Z,86
2018-07-28T01:38:45.993Z,87
2018-07-28T01:39:48.046Z,87
2018-07-28T01:40:50.475Z,87
2018-07-28T01:41:52.515Z,87
2018-07-28T01:42:54.574Z,87
2018-07-28T01:43:56.610Z,87
2018-07-28T01:44:58.650Z,87
2018-07-28T01:46:01.092Z,87
2018-07-28T01:47:03.133Z,87
2018-07-28T01:48:05.562Z,87
2018-07-28T01:49:07.659Z,87
2018-07-28T01:50:09.698Z,87
2018-07-28T01:51:11.751Z,87
2018-07-28T01:52:13.803Z,87
2018-07-28T01:53:15.848Z,87
2018-07-28T01:54:17.882Z,87
2018-07-28T01:55:19.941Z,87
2018-07-28T01:56:21.982Z,87
2018-07-28T01:57:24.024Z,87
2018-07-28T01:58:26.074Z,87
2018-07-28T01:59:28.109Z,87
2018-07-28T02:00:30.450Z,87
2018-07-28T02:01:32.494Z,87
2018-07-28T02:02:34.548Z,87
2018-07-28T02:03:36.583Z,87
2018-07-28T02:04:38.629Z,87
2018-07-28T02:05:40.677Z,87
2018-07-28T02:06:42.716Z,88
2018-07-28T02:07:44.767Z,88
2018-07-28T02:08:46.806Z,88
2018-07-28T02:09:48.844Z,88
2018-07-28T02:10:50.882Z,88
2018-07-28T02:11:52.937Z,88
2018-07-28T02:12:55.257Z,88
2018-07-28T02:13:57.301Z,88
2018-07-28T02:14:59.340Z,88
2018-07-28T02:16:01.695Z,88
2018-07-28T02:17:03.737Z,88
2018-07-28T02:18:05.775Z,89
2018-07-28T02:19:07.829Z,88
2018-07-28T02:20:09.868Z,89
2018-07-28T02:21:11.911Z,89
2018-07-28T02:22:13.956Z,89
2018-07-28T02:23:15.995Z,89
2018-07-28T02:24:18.047Z,89
2018-07-28T02:25:20.425Z,89
2018-07-28T02:26:22.475Z,89
2018-07-28T02:27:24.897Z,89
2018-07-28T02:28:26.949Z,90
2018-07-28T02:29:28.992Z,90
2018-07-28T02:30:31.039Z,90
2018-07-28T02:31:33.390Z,90
2018-07-28T02:32:35.806Z,90
2018-07-28T02:33:37.860Z,90
2018-07-28T02:34:40.490Z,90
2018-07-28T02:35:42.545Z,90
2018-07-28T02:36:45.172Z,90
2018-07-28T02:37:47.919Z,90
2018-07-28T02:38:49.969Z,89
2018-07-28T02:39:52.391Z,89
2018-07-28T02:40:54.751Z,89
2018-07-28T02:41:56.787Z,89
2018-07-28T02:42:58.825Z,90
2018-07-28T02:44:00.864Z,90
2018-07-28T02:45:02.920Z,90
2018-07-28T02:46:05.526Z,89
2018-07-28T02:47:09.136Z,89
2018-07-28T02:48:11.191Z,89
2018-07-28T02:49:13.524Z,90
2018-07-28T02:50:16.242Z,90
2018-07-28T02:51:18.863Z,90
2018-07-28T02:52:20.897Z,90
2018-07-28T02:53:23.256Z,90
2018-07-28T02:54:25.596Z,90
2018-07-28T02:55:27.637Z,90
2018-07-28T02:56:30.082Z,90
2018-07-28T02:57:32.505Z,90
2018-07-28T02:58:34.830Z,90
2018-07-28T02:59:36.873Z,90
2018-07-28T03:00:39.813Z,90
2018-07-28T03:01:41.844Z,90
2018-07-28T03:02:43.893Z,90
2018-07-28T03:03:45.936Z,90
2018-07-28T03:04:48.265Z,90
2018-07-28T03:05:50.888Z,90
2018-07-28T03:06:52.932Z,90
2018-07-28T03:07:55.952Z,90
2018-07-28T03:08:58.763Z,90
2018-07-28T03:10:00.821Z,90
2018-07-28T03:11:02.859Z,90
2018-07-28T03:12:04.899Z,91
2018-07-28T03:13:07.631Z,90
2018-07-28T03:14:09.951Z,90
2018-07-28T03:15:12.290Z,91
2018-07-28T03:16:14.727Z,91
2018-07-28T03:17:16.779Z,90
2018-07-28T03:18:19.383Z,90
2018-07-28T03:19:21.438Z,90
2018-07-28T03:20:23.476Z,90
2018-07-28T03:21:25.810Z,90
2018-07-28T03:22:28.540Z,90
2018-07-28T03:23:31.169Z,91
2018-07-28T03:24:33.204Z,90
2018-07-28T03:25:35.555Z,90
2018-07-28T03:26:37.610Z,90
2018-07-28T03:27:39.924Z,90
2018-07-28T03:28:42.250Z,90
2018-07-28T03:29:44.688Z,90
2018-07-28T03:30:46.726Z,90
2018-07-28T03:31:48.764Z,90
2018-07-28T03:32:51.085Z,90
2018-07-28T03:33:53.141Z,90
2018-07-28T03:34:55.176Z,90
2018-07-28T03:35:57.225Z,90
2018-07-28T03:36:59.264Z,90
2018-07-28T03:38:01.314Z,90
2018-07-28T03:39:03.361Z,90
2018-07-28T03:40:05.700Z,90
2018-07-28T03:41:07.753Z,90
2018-07-28T03:42:10.069Z,90
2018-07-28T03:43:12.126Z,90
2018-07-28T03:44:14.166Z,90
2018-07-28T03:45:16.206Z,90
2018-07-28T03:46:18.259Z,90
2018-07-28T03:47:20.583Z,90
2018-07-28T03:48:22.635Z,90
2018-07-28T03:49:24.724Z,90
2018-07-28T03:50:26.729Z,90
2018-07-28T03:51:28.766Z,90
2018-07-28T03:52:30.812Z,90
2018-07-28T03:53:33.244Z,90
2018-07-28T03:54:35.291Z,90
2018-07-28T03:55:37.347Z,90
2018-07-28T03:56:39.765Z,90
2018-07-28T03:57:41.802Z,90
2018-07-28T03:58:43.855Z,90
2018-07-28T03:59:45.893Z,90
2018-07-28T04:00:48.217Z,90
2018-07-28T04:01:50.261Z,90
2018-07-28T04:02:52.302Z,90
2018-07-28T04:03:54.351Z,90
2018-07-28T04:04:56.401Z,90
2018-07-28T04:05:58.840Z,90
2018-07-28T04:07:00.873Z,90
2018-07-28T04:08:02.933Z,90
2018-07-28T04:09:04.972Z,90
2018-07-28T04:10:07.016Z,90
2018-07-28T04:11:09.374Z,90
2018-07-28T04:12:11.410Z,90
2018-07-28T04:13:13.460Z,90
2018-07-28T04:14:15.503Z,90
2018-07-28T04:15:17.876Z,90
2018-07-28T04:16:19.913Z,90
2018-07-28T04:17:22.253Z,90
2018-07-28T04:18:24.301Z,90
2018-07-28T04:19:26.339Z,90
2018-07-28T04:20:28.394Z,90
2018-07-28T04:21:30.716Z,90
2018-07-28T04:22:32.756Z,90
2018-07-28T04:23:34.796Z,90
2018-07-28T04:24:36.847Z,90
2018-07-28T04:25:38.886Z,90
2018-07-28T04:26:40.934Z,90
2018-07-28T04:27:42.984Z,90
2018-07-28T04:28:45.021Z,89
2018-07-28T04:29:47.354Z,89
2018-07-28T04:30:49.404Z,89
2018-07-28T04:31:51.996Z,89
2018-07-28T04:32:54.336Z,89
2018-07-28T04:33:56.959Z,89
2018-07-28T04:34:59.282Z,89
2018-07-28T04:36:01.333Z,89
2018-07-28T04:37:03.817Z,89
2018-07-28T04:38:05.758Z,89
2018-07-28T04:39:07.798Z,88
2018-07-28T04:40:10.161Z,88
2018-07-28T04:41:12.202Z,88
2018-07-28T04:42:14.252Z,88
2018-07-28T04:43:16.297Z,88
2018-07-28T04:44:18.342Z,88
2018-07-28T04:45:20.377Z,88
2018-07-28T04:46:22.425Z,88
2018-07-28T04:47:24.467Z,88
2018-07-28T04:48:26.809Z,88
2018-07-28T04:49:28.849Z,88
2018-07-28T04:50:31.190Z,88
2018-07-28T04:51:33.239Z,88
2018-07-28T04:52:35.562Z,87
2018-07-28T04:53:38.007Z,87
2018-07-28T04:54:40.046Z,87
2018-07-28T04:55:42.087Z,87
2018-07-28T04:56:44.126Z,87
2018-07-28T04:57:46.176Z,87
2018-07-28T04:58:48.218Z,86
2018-07-28T04:59:50.260Z,86
2018-07-28T05:00:52.309Z,86
2018-07-28T05:01:54.342Z,86
2018-07-28T05:02:56.392Z,86
2018-07-28T05:03:58.729Z,85
2018-07-28T05:05:00.763Z,86
2018-07-28T05:06:02.822Z,86
2018-07-28T05:07:05.149Z,85
2018-07-28T05:08:07.482Z,85
2018-07-28T05:09:09.532Z,85
2018-07-28T05:10:11.569Z,85
2018-07-28T05:11:13.612Z,84
2018-07-28T05:12:15.652Z,85
2018-07-28T05:13:17.706Z,84
2018-07-28T05:14:19.742Z,84
2018-07-28T05:15:21.791Z,84
2018-07-28T05:16:23.837Z,84
2018-07-28T05:17:25.875Z,84
2018-07-28T05:18:28.216Z,83
2018-07-28T05:19:30.255Z,83
2018-07-28T05:20:32.303Z,83
2018-07-28T05:21:34.337Z,83
2018-07-28T05:22:36.775Z,83
2018-07-28T05:23:38.852Z,83
2018-07-28T05:24:40.848Z,83
2018-07-28T05:25:42.898Z,82
2018-07-28T05:26:44.931Z,82
2018-07-28T05:27:46.980Z,82
2018-07-28T05:28:49.467Z,82
2018-07-28T05:29:51.515Z,82
2018-07-28T05:30:53.549Z,82
2018-07-28T05:31:55.596Z,82
2018-07-28T05:32:57.923Z,82
2018-07-28T05:34:00.251Z,82
2018-07-28T05:35:02.596Z,81
2018-07-28T05:36:04.918Z,81
2018-07-28T05:37:07.023Z,81
2018-07-28T05:38:09.015Z,81
2018-07-28T05:39:11.350Z,81
2018-07-28T05:40:13.391Z,81
2018-07-28T05:41:15.717Z,81
2018-07-28T05:42:17.757Z,81
2018-07-28T05:43:19.810Z,81
2018-07-28T05:44:21.862Z,80
2018-07-28T05:45:24.628Z,80
2018-07-28T05:46:26.665Z,80
2018-07-28T05:47:28.720Z,80
2018-07-28T05:48:30.758Z,80
2018-07-28T05:49:32.802Z,80
2018-07-28T05:50:34.851Z,80
2018-07-28T05:51:37.271Z,79
2018-07-28T05:52:39.318Z,80
2018-07-28T05:53:41.362Z,79
2018-07-28T05:54:43.420Z,79
2018-07-28T05:55:45.455Z,79
2018-07-28T05:56:47.505Z,79
2018-07-28T05:57:49.559Z,79
2018-07-28T05:58:51.596Z,79
2018-07-28T05:59:53.645Z,78
2018-07-28T06:00:55.989Z,78
2018-07-28T06:01:58.039Z,78
2018-07-28T06:03:00.090Z,77
2018-07-28T06:04:02.512Z,77
2018-07-28T06:05:04.667Z,77
2018-07-28T06:06:07.295Z,77
2018-07-28T06:07:09.335Z,77
2018-07-28T06:08:11.392Z,77
2018-07-28T06:09:13.718Z,76
2018-07-28T06:10:16.044Z,76
2018-07-28T06:11:18.099Z,76
2018-07-28T06:12:20.137Z,75
2018-07-28T06:13:22.177Z,76
2018-07-28T06:14:24.615Z,75
2018-07-28T06:15:26.649Z,75
2018-07-28T06:16:28.695Z,75
2018-07-28T06:17:30.747Z,74
2018-07-28T06:18:32.797Z,74
2018-07-28T06:19:34.830Z,74
2018-07-28T06:20:36.886Z,74
2018-07-28T06:21:39.226Z,73
2018-07-28T06:22:41.270Z,74
2018-07-28T06:23:43.612Z,74
2018-07-28T06:24:45.932Z,73
2018-07-28T06:25:47.984Z,73
2018-07-28T06:26:50.410Z,72
2018-07-28T06:27:52.908Z,72
2018-07-28T06:28:55.200Z,72
2018-07-28T06:29:57.253Z,72
2018-07-28T06:30:59.589Z,72
2018-07-28T06:32:01.967Z,71
2018-07-28T06:33:04.368Z,71
2018-07-28T06:34:06.409Z,71
2018-07-28T06:35:08.458Z,71
2018-07-28T06:36:10.788Z,70
2018-07-28T06:37:12.846Z,70
2018-07-28T06:38:14.887Z,69
2018-07-28T06:39:16.932Z,69
2018-07-28T06:40:18.972Z,69
2018-07-28T06:41:21.034Z,70
2018-07-28T06:42:23.357Z,70
2018-07-28T06:43:25.396Z,69
2018-07-28T06:44:27.455Z,69
2018-07-28T06:45:29.492Z,69
2018-07-28T06:46:31.917Z,69
2018-07-28T06:47:34.641Z,69
2018-07-28T06:48:36.684Z,68
2018-07-28T06:49:38.737Z,68
2018-07-28T06:50:40.791Z,68
2018-07-28T06:51:42.843Z,68
2018-07-28T06:52:45.780Z,68
2018-07-28T06:53:48.482Z,68
2018-07-28T06:54:51.362Z,68
2018-07-28T06:55:53.414Z,68
2018-07-28T06:56:55.484Z,68
2018-07-28T06:57:57.637Z,68
2018-07-28T06:58:59.690Z,68
2018-07-28T07:00:01.924Z,67
2018-07-28T07:01:04.540Z,66
2018-07-28T07:02:07.523Z,66
2018-07-28T07:03:09.587Z,65
2018-07-28T07:04:11.641Z,66
2018-07-28T07:05:13.685Z,66
2018-07-28T07:06:15.750Z,65
2018-07-28T07:07:18.180Z,66
2018-07-28T07:08:20.229Z,65
2018-07-28T07:09:22.265Z,65
2018-07-28T07:10:24.329Z,65
2018-07-28T07:11:26.374Z,65
2018-07-28T07:12:28.709Z,65
2018-07-28T07:13:30.768Z,65
2018-07-28T07:14:33.190Z,65
2018-07-28T07:15:35.533Z,64
2018-07-28T07:16:37.574Z,64
2018-07-28T07:17:39.635Z,64
2018-07-28T07:18:41.675Z,64
2018-07-28T07:19:44.105Z,64
2018-07-28T07:20:46.157Z,64
2018-07-28T07:21:48.197Z,63
2018-07-28T07:22:50.540Z,63
2018-07-28T07:23:52.885Z,63
2018-07-28T07:24:54.938Z,62
2018-07-28T07:25:57.283Z,63
2018-07-28T07:26:59.343Z,63
2018-07-28T07:28:01.392Z,63
2018-07-28T07:29:03.439Z,62
2018-07-28T07:30:05.496Z,62
2018-07-28T07:31:07.540Z,62
2018-07-28T07:32:09.593Z,62
2018-07-28T07:33:11.638Z,62
2018-07-28T07:34:14.082Z,62
2018-07-28T07:35:16.125Z,62
2018-07-28T07:36:18.338Z,61
2018-07-28T07:37:20.237Z,61
2018-07-28T07:38:22.284Z,60
2018-07-28T07:39:24.341Z,61
2018-07-28T07:40:26.387Z,60
2018-07-28T07:41:28.432Z,60
2018-07-28T07:42:30.479Z,60
2018-07-28T07:43:32.544Z,60
2018-07-28T07:44:34.588Z,60
2018-07-28T07:45:36.644Z,60
2018-07-28T07:46:38.699Z,60
2018-07-28T07:47:40.849Z,60
2018-07-28T07:48:42.796Z,59
2018-07-28T07:49:44.852Z,59
2018-07-28T07:50:46.892Z,59
2018-07-28T07:51:48.957Z,59
2018-07-28T07:52:51.008Z,59
2018-07-28T07:53:53.769Z,59
2018-07-28T07:54:55.773Z,59
2018-07-28T07:55:58.201Z,59
2018-07-28T07:57:00.245Z,59
2018-07-28T07:58:02.293Z,59
2018-07-28T07:59:04.920Z,59
2018-07-28T08:00:07.344Z,59
2018-07-28T08:01:09.400Z,59
2018-07-28T08:02:11.456Z,58
2018-07-28T08:03:13.885Z,58
2018-07-28T08:04:15.948Z,58
2018-07-28T08:05:18.395Z,58
2018-07-28T08:06:20.473Z,58
2018-07-28T08:07:22.848Z,58
2018-07-28T08:08:24.911Z,57
2018-07-28T08:09:26.957Z,57
2018-07-28T08:10:29.288Z,57
2018-07-28T08:11:31.346Z,57
2018-07-28T08:12:33.707Z,57
2018-07-28T08:13:36.051Z,57
2018-07-28T08:14:38.109Z,57
2018-07-28T08:15:40.163Z,56
2018-07-28T08:16:42.202Z,56
2018-07-28T08:17:44.257Z,56
2018-07-28T08:18:46.309Z,56
2018-07-28T08:19:48.359Z,56
2018-07-28T08:20:51.138Z,55
2018-07-28T08:21:53.160Z,55
2018-07-28T08:22:55.209Z,55
2018-07-28T08:23:57.270Z,55
2018-07-28T08:24:59.601Z,55
2018-07-28T08:26:01.647Z,55
2018-07-28T08:27:03.700Z,55
2018-07-28T08:28:05.744Z,55
2018-07-28T08:29:07.797Z,54
2018-07-28T08:30:09.854Z,54
2018-07-28T08:31:11.907Z,54
2018-07-28T08:32:13.966Z,54
2018-07-28T08:33:16.065Z,54
2018-07-28T08:34:18.796Z,53
2018-07-28T08:35:20.846Z,52
2018-07-28T08:36:22.892Z,52
2018-07-28T08:37:24.956Z,52
2018-07-28T08:38:27.010Z,51
2018-07-28T08:39:29.351Z,51
2018-07-28T08:40:31.390Z,51
2018-07-28T08:41:33.839Z,51
2018-07-28T08:42:35.885Z,51
2018-07-28T08:43:37.932Z,49
2018-07-28T08:44:40.284Z,49
2018-07-28T08:45:42.326Z,49
2018-07-28T08:46:44.688Z,48
2018-07-28T08:47:46.741Z,48
2018-07-28T08:48:48.826Z,48
2018-07-28T08:49:50.841Z,47
2018-07-28T08:50:52.898Z,47
2018-07-28T08:51:54.947Z,47
2018-07-28T08:52:56.992Z,47
2018-07-28T08:53:59.051Z,47
2018-07-28T08:55:01.403Z,47
2018-07-28T08:56:03.449Z,47
2018-07-28T08:57:05.509Z,47
2018-07-28T08:58:07.642Z,46
2018-07-28T08:59:10.082Z,45
2018-07-28T09:00:12.137Z,45
2018-07-28T09:01:14.679Z,44
2018-07-28T09:02:16.737Z,44
2018-07-28T09:03:18.797Z,45
2018-07-28T09:04:20.855Z,44
2018-07-28T09:05:22.905Z,44
2018-07-28T09:06:25.250Z,44
2018-07-28T09:07:27.306Z,44
2018-07-28T09:08:29.356Z,43
2018-07-28T09:09:31.798Z,43
2018-07-28T09:10:33.908Z,43
2018-07-28T09:11:36.225Z,44
2018-07-28T09:12:38.279Z,44
2018-07-28T09:13:40.324Z,43
2018-07-28T09:14:42.391Z,43
2018-07-28T09:15:44.724Z,43
2018-07-28T09:16:46.772Z,43
2018-07-28T09:17:48.856Z,43
2018-07-28T09:18:51.160Z,42
2018-07-28T09:19:53.224Z,41
2018-07-28T09:20:55.590Z,41
2018-07-28T09:21:57.953Z,41
2018-07-28T09:23:00.282Z,41
2018-07-28T09:24:02.344Z,41
2018-07-28T09:25:04.703Z,41
2018-07-28T09:26:07.138Z,40
2018-07-28T09:27:09.199Z,40
2018-07-28T09:28:11.250Z,41
2018-07-28T09:29:13.297Z,40
2018-07-28T09:30:15.364Z,40
2018-07-28T09:31:17.413Z,40
2018-07-28T09:32:19.753Z,41
2018-07-28T09:33:21.808Z,40
2018-07-28T09:34:24.438Z,40
2018-07-28T09:35:26.498Z,40
2018-07-28T09:36:28.557Z,40
2018-07-28T09:37:30.616Z,39
2018-07-28T09:38:32.965Z,40
2018-07-28T09:39:35.029Z,39
2018-07-28T09:40:37.460Z,39
2018-07-28T09:41:39.522Z,39
2018-07-28T09:42:41.578Z,39
2018-07-28T09:43:43.624Z,39
2018-07-28T09:44:45.680Z,39
2018-07-28T09:45:47.733Z,39
2018-07-28T09:46:50.511Z,40
2018-07-28T09:47:52.851Z,40
2018-07-28T09:48:54.911Z,39
2018-07-28T09:49:56.957Z,39
2018-07-28T09:50:59.018Z,39
2018-07-28T09:52:01.063Z,39
2018-07-28T09:53:03.434Z,39
2018-07-28T09:54:05.497Z,39
2018-07-28T09:55:07.559Z,38
2018-07-28T09:56:09.670Z,39
2018-07-28T09:57:12.039Z,39
2018-07-28T09:58:14.096Z,39
2018-07-28T09:59:16.147Z,39
2018-07-28T10:00:18.605Z,38
2018-07-28T10:01:20.657Z,38
2018-07-28T10:02:22.708Z,37
2018-07-28T10:03:24.777Z,38
2018-07-28T10:04:26.838Z,38
2018-07-28T10:05:28.916Z,37
2018-07-28T10:06:30.941Z,38
2018-07-28T10:07:33.277Z,39
2018-07-28T10:08:35.340Z,38
2018-07-28T10:09:37.402Z,37
2018-07-28T10:10:39.754Z,37
2018-07-28T10:11:42.107Z,37
2018-07-28T10:12:44.176Z,37
2018-07-28T10:13:46.519Z,38
2018-07-28T10:14:48.866Z,37
2018-07-28T10:15:50.929Z,38
2018-07-28T10:16:52.975Z,37
2018-07-28T10:17:55.321Z,37
2018-07-28T10:18:57.372Z,37
2018-07-28T10:19:59.441Z,37
2018-07-28T10:21:01.489Z,37
2018-07-28T10:22:03.846Z,36
2018-07-28T10:23:06.963Z,36
2018-07-28T10:24:09.015Z,35
2018-07-28T10:25:11.084Z,35
2018-07-28T10:26:13.140Z,35
2018-07-28T10:27:15.199Z,35
2018-07-28T10:28:17.629Z,36
2018-07-28T10:29:19.699Z,36
2018-07-28T10:30:21.752Z,36
2018-07-28T10:31:23.818Z,36
2018-07-28T10:32:25.884Z,36
2018-07-28T10:33:27.931Z,37
2018-07-28T10:34:30.006Z,37
2018-07-28T10:35:32.084Z,36
2018-07-28T10:36:34.666Z,36
2018-07-28T10:37:36.710Z,35
2018-07-28T10:38:40.522Z,35
2018-07-28T10:39:42.597Z,35
2018-07-28T10:40:44.658Z,34
2018-07-28T10:41:46.715Z,34
2018-07-28T10:42:48.767Z,34
2018-07-28T10:43:50.823Z,34
2018-07-28T10:44:52.893Z,34
2018-07-28T10:45:54.945Z,34
2018-07-28T10:46:57.322Z,35
2018-07-28T10:47:59.382Z,34
2018-07-28T10:49:01.439Z,35
2018-07-28T10:50:03.519Z,34
2018-07-28T10:51:05.970Z,34
2018-07-28T10:52:08.034Z,34
2018-07-28T10:53:10.088Z,33
2018-07-28T10:54:12.154Z,33
2018-07-28T10:55:14.213Z,33
2018-07-28T10:56:16.566Z,33
2018-07-28T10:57:18.630Z,33
2018-07-28T10:58:20.968Z,33
2018-07-28T10:59:23.031Z,34
2018-07-28T11:00:25.199Z,34
2018-07-28T11:01:27.595Z,34
2018-07-28T11:02:29.643Z,34
2018-07-28T11:03:31.715Z,34
2018-07-28T11:04:34.089Z,34
2018-07-28T11:05:36.160Z,33
2018-07-28T11:06:38.200Z,33
2018-07-28T11:07:40.268Z,33
2018-07-28T11:08:42.333Z,33
2018-07-28T11:09:44.390Z,33
2018-07-28T11:10:46.455Z,33
2018-07-28T11:11:48.523Z,34
2018-07-28T11:12:50.588Z,33
2018-07-28T11:13:52.658Z,33
2018-07-28T11:14:54.714Z,33
2018-07-28T11:15:56.773Z,34
2018-07-28T11:16:58.827Z,34
2018-07-28T11:18:00.898Z,34
2018-07-28T11:19:03.552Z,34
2018-07-28T11:20:05.882Z,33
2018-07-28T11:21:07.943Z,33
2018-07-28T11:22:09.999Z,33
2018-07-28T11:23:12.075Z,33
2018-07-28T11:24:14.128Z,33
2018-07-28T11:25:16.482Z,33
2018-07-28T11:26:19.050Z,33
2018-07-28T11:27:21.079Z,32
2018-07-28T11:28:23.430Z,32
2018-07-28T11:29:25.485Z,33
2018-07-28T11:30:27.547Z,33
2018-07-28T11:31:29.602Z,32
2018-07-28T11:32:31.666Z,32
2018-07-28T11:33:33.730Z,32
2018-07-28T11:34:36.085Z,32
2018-07-28T11:35:38.131Z,32
2018-07-28T11:36:40.202Z,32
2018-07-28T11:37:42.561Z,32
2018-07-28T11:38:44.922Z,32
2018-07-28T11:39:47.022Z,31
2018-07-28T11:40:49.366Z,32
2018-07-28T11:41:51.458Z,31
2018-07-28T11:42:53.915Z,31
2018-07-28T11:43:56.021Z,30
2018-07-28T11:44:58.088Z,30
2018-07-28T11:46:00.154Z,30
2018-07-28T11:47:02.604Z,30
2018-07-28T11:48:05.044Z,30
2018-07-28T11:49:07.102Z,31
2018-07-28T11:50:09.166Z,31
2018-07-28T11:51:11.546Z,31
2018-07-28T11:52:13.569Z,31
2018-07-28T11:53:15.651Z,31
2018-07-28T11:54:17.708Z,30
2018-07-28T11:55:19.764Z,30
2018-07-28T11:56:22.126Z,30
2018-07-28T11:57:24.187Z,30
2018-07-28T11:58:26.372Z,30
2018-07-28T11:59:28.303Z,30
2018-07-28T12:00:30.376Z,30
2018-07-28T12:01:32.433Z,30
2018-07-28T12:02:35.218Z,30
2018-07-28T12:03:37.289Z,30
2018-07-28T12:04:39.336Z,30
2018-07-28T12:05:41.406Z,30
2018-07-28T12:06:43.782Z,30
2018-07-28T12:07:45.845Z,29
2018-07-28T12:08:48.195Z,29
2018-07-28T12:09:50.260Z,30
2018-07-28T12:10:52.324Z,31
2018-07-28T12:11:54.383Z,31
2018-07-28T12:12:56.452Z,31
2018-07-28T12:13:58.515Z,30
2018-07-28T12:15:00.575Z,30
2018-07-28T12:16:03.033Z,31
2018-07-28T12:17:05.090Z,30
2018-07-28T12:18:07.485Z,30
2018-07-28T12:19:09.494Z,30
2018-07-28T12:20:11.559Z,30
2018-07-28T12:21:13.621Z,30
2018-07-28T12:22:15.957Z,30
2018-07-28T12:23:18.013Z,30
2018-07-28T12:24:20.083Z,30
2018-07-28T12:25:22.134Z,30
2018-07-28T12:26:24.200Z,30
2018-07-28T12:27:26.257Z,30
2018-07-28T12:28:28.608Z,30
2018-07-28T12:29:30.680Z,30
2018-07-28T12:30:32.733Z,30
2018-07-28T12:31:34.802Z,31
2018-07-28T12:32:36.852Z,30
2018-07-28T12:33:39.308Z,31
2018-07-28T12:34:42.445Z,30
2018-07-28T12:35:44.417Z,30
2018-07-28T12:36:47.156Z,30
2018-07-28T12:37:49.209Z,31
2018-07-28T12:38:51.276Z,31
2018-07-28T12:39:53.341Z,31
2018-07-28T12:40:55.803Z,30
2018-07-28T12:41:57.806Z,31
2018-07-28T12:42:59.873Z,30
2018-07-28T12:44:01.936Z,31
2018-07-28T12:45:04.280Z,30
2018-07-28T12:46:06.349Z,30
2018-07-28T12:47:08.404Z,30
2018-07-28T12:48:10.468Z,30
2018-07-28T12:49:12.540Z,30
2018-07-28T12:50:14.598Z,30
2018-07-28T12:51:16.656Z,29
2018-07-28T12:52:18.718Z,29
2018-07-28T12:53:20.775Z,30
2018-07-28T12:54:22.841Z,29
2018-07-28T12:55:25.043Z,29
2018-07-28T12:56:26.976Z,29
2018-07-28T12:57:29.026Z,29
2018-07-28T12:58:31.098Z,30
2018-07-28T12:59:33.159Z,29
2018-07-28T13:00:35.241Z,30
2018-07-28T13:01:37.611Z,30
2018-07-28T13:02:39.696Z,30
2018-07-28T13:03:42.068Z,30
2018-07-28T13:04:44.158Z,30
2018-07-28T13:05:46.235Z,30
2018-07-28T13:06:48.319Z,30
2018-07-28T13:07:50.403Z,29
2018-07-28T13:08:52.775Z,30
2018-07-28T13:09:54.893Z,29
2018-07-28T13:10:56.946Z,29
2018-07-28T13:11:59.025Z,30
2018-07-28T13:13:01.107Z,30
2018-07-28T13:14:03.480Z,29
2018-07-28T13:15:05.564Z,29
2018-07-28T13:16:07.648Z,29
2018-07-28T13:17:09.768Z,29
2018-07-28T13:18:12.223Z,29
2018-07-28T13:19:14.312Z,29
2018-07-28T13:20:16.398Z,29
2018-07-28T13:21:18.480Z,30
2018-07-28T13:22:20.567Z,30
2018-07-28T13:23:22.660Z,30
2018-07-28T13:24:24.742Z,31
2018-07-28T13:25:26.827Z,30
2018-07-28T13:26:28.912Z,30
2018-07-28T13:27:31.283Z,30
2018-07-28T13:28:33.372Z,30
2018-07-28T13:29:35.451Z,30
2018-07-28T13:30:37.537Z,30
2018-07-28T13:31:39.620Z,30
2018-07-28T13:32:41.703Z,30
2018-07-28T13:33:43.788Z,29
2018-07-28T13:34:46.166Z,30
2018-07-28T13:35:48.257Z,29
2018-07-28T13:36:50.627Z,29
2018-07-28T13:37:52.710Z,29
2018-07-28T13:38:54.793Z,29
2018-07-28T13:39:56.877Z,30
2018-07-28T13:40:58.964Z,31
2018-07-28T13:42:01.391Z,31
2018-07-28T13:43:03.416Z,30
2018-07-28T13:44:05.510Z,31
2018-07-28T13:45:07.593Z,31
2018-07-28T13:46:09.679Z,32
2018-07-28T13:47:11.762Z,32
2018-07-28T13:48:13.849Z,33
2018-07-28T13:49:15.934Z,32
2018-07-28T13:50:18.018Z,32
2018-07-28T13:51:20.101Z,33
2018-07-28T13:52:22.187Z,32
2018-07-28T13:53:24.726Z,32
2018-07-28T13:54:27.135Z,31
2018-07-28T13:55:29.604Z,32
2018-07-28T13:56:31.972Z,31
2018-07-28T13:57:34.051Z,31
2018-07-28T13:58:36.135Z,31
2018-07-28T13:59:38.218Z,31
2018-07-28T14:00:40.303Z,31
2018-07-28T14:01:42.672Z,30
2018-07-28T14:02:44.784Z,29
2018-07-28T14:03:46.845Z,30
2018-07-28T14:04:48.929Z,29
2018-07-28T14:05:51.016Z,29
2018-07-28T14:06:53.097Z,30
2018-07-28T14:07:55.165Z,29
2018-07-28T14:08:57.238Z,29
2018-07-28T14:09:59.576Z,29
2018-07-28T14:11:02.035Z,29
2018-07-28T14:12:04.092Z,29
2018-07-28T14:13:06.245Z,29
2018-07-28T14:14:08.918Z,30
2018-07-28T14:15:11.455Z,29
2018-07-28T14:16:13.506Z,30
2018-07-28T14:17:15.598Z,30
2018-07-28T14:18:18.418Z,31
2018-07-28T14:19:20.431Z,31
2018-07-28T14:20:22.491Z,31
2018-07-28T14:21:24.564Z,31
2018-07-28T14:22:26.625Z,31
2018-07-28T14:23:28.724Z,31
2018-07-28T14:24:30.757Z,32
2018-07-28T14:25:32.828Z,32
2018-07-28T14:26:35.707Z,32
2018-07-28T14:27:38.070Z,32
2018-07-28T14:28:40.115Z,33
2018-07-28T14:29:42.183Z,33
2018-07-28T14:30:44.251Z,33
2018-07-28T14:31:46.312Z,33
2018-07-28T14:32:48.379Z,33
2018-07-28T14:33:50.438Z,34
2018-07-28T14:34:52.496Z,34
2018-07-28T14:35:54.549Z,34
2018-07-28T14:36:56.619Z,34
2018-07-28T14:37:58.954Z,33
2018-07-28T14:39:01.019Z,33
2018-07-28T14:40:03.079Z,33
2018-07-28T14:41:05.133Z,33
2018-07-28T14:42:07.206Z,34
2018-07-28T14:43:09.262Z,34
2018-07-28T14:44:11.329Z,33
2018-07-28T14:45:13.375Z,33
2018-07-28T14:46:15.448Z,33